Idaho Falls Regional Airport
KIDA : now visible

Airfield :











YOU CAN JOIN US ON...

 
LOGIN :

Register | Disclaimer

   EN    FR    IT 

 









Legend :    VFR   Marginal VFR   IFR   Intensive IFR   Very Intensive IFR
Visi :
Ceiling :
>= 8 km
>= 3000ft
5 to 8 km
1000 to 3000 ft
1500m to 5 km
500 to 1000 ft
800 to 1500m
200 to 500 ft
< 800m
< 200 ft
Symbols :   Thunderstorms  Fog  Heavy snow  Heavy precipitations  Wind > 20 kt






- Airport Elevation : 4744 ft
- IATA code : IDA


KIDA - Idaho Falls Regional

CURRENT METAR :
  • 192253Z 20011KT 10SM FEW075 11/M02 A2967 RMK AO2 SLP049 T01061017

EXPIRED METARs :
  • 192153Z 19009KT 10SM BKN100 OVC150 11/M02 A2966 RMK AO2 SLP045 T01061017
  • 192053Z 20008KT 10SM OVC110 10/M02 A2966 RMK AO2 SLP045 T01001017 55012
  • 191953Z 24006KT 10SM BKN150 10/M01 A2966 RMK AO2 SLP044 T01001006

TAF KIDA
Valid from the 19 at 18:00 until the 20 at 18:00 UTC


191726Z 1918/2018 VRB05KT P6SM FEW060 OVC150
FM192000 23010G20KT P6SM VCSH SCT030 OVC050
FM200200 22010KT P6SM OVC040
FM201000 01010KT P6SM BKN050 BKN100



MET'MAP, your aeronautical weather chart ! - Copyright ORBIFLY December 2007 - Disclaimer

ORBIFLY MET'MAP TEAM :

Programming & Development : Alexandra Zaïnal
Concept & Development : Baudouin d'Aumeries
Co-Development & Prog : Marc-Olivier Méhu
Technical & hardware support : Manuel Goepfert

Contact : metmap@orbifly.com




SOURCES & CREDITS :

   NOAA       Earth
Advisory